createdAt,value
2018-02-17T00:00:16.801Z,1027.89
2018-02-17T00:01:16.708Z,1027.87
2018-02-17T00:02:16.760Z,1027.9
2018-02-17T00:03:16.706Z,1027.86
2018-02-17T00:04:16.697Z,1027.84
2018-02-17T00:05:16.699Z,1027.87
2018-02-17T00:06:16.743Z,1027.83
2018-02-17T00:07:16.725Z,1027.84
2018-02-17T00:08:16.700Z,1027.84
2018-02-17T00:09:16.686Z,1027.82
2018-02-17T00:10:16.710Z,1027.82
2018-02-17T00:11:16.733Z,1027.84
2018-02-17T00:12:16.701Z,1027.82
2018-02-17T00:13:16.803Z,1027.81
2018-02-17T00:14:16.717Z,1027.78
2018-02-17T00:15:16.695Z,1027.77
2018-02-17T00:16:16.839Z,1027.78
2018-02-17T00:17:16.708Z,1027.75
2018-02-17T00:18:16.758Z,1027.72
2018-02-17T00:19:16.742Z,1027.7
2018-02-17T00:20:16.776Z,1027.67
2018-02-17T00:21:16.741Z,1027.71
2018-02-17T00:22:16.790Z,1027.67
2018-02-17T00:23:16.714Z,1027.68
2018-02-17T00:24:16.702Z,1027.63
2018-02-17T00:25:16.702Z,1027.6
2018-02-17T00:26:16.691Z,1027.62
2018-02-17T00:27:16.774Z,1027.59
2018-02-17T00:28:16.761Z,1027.57
2018-02-17T00:29:16.789Z,1027.57
2018-02-17T00:30:16.733Z,1027.55
2018-02-17T00:31:16.711Z,1027.56
2018-02-17T00:32:16.744Z,1027.5
2018-02-17T00:33:16.766Z,1027.42
2018-02-17T00:34:16.747Z,1027.47
2018-02-17T00:35:16.713Z,1027.44
2018-02-17T00:36:16.867Z,1027.45
2018-02-17T00:37:16.740Z,1027.45
2018-02-17T00:38:16.719Z,1027.45
2018-02-17T00:39:16.705Z,1027.43
2018-02-17T00:40:16.711Z,1027.43
2018-02-17T00:41:16.738Z,1027.47
2018-02-17T00:42:16.835Z,1027.47
2018-02-17T00:43:16.734Z,1027.46
2018-02-17T00:44:16.713Z,1027.46
2018-02-17T00:45:16.701Z,1027.45
2018-02-17T00:46:16.739Z,1027.47
2018-02-17T00:47:16.718Z,1027.45
2018-02-17T00:48:16.722Z,1027.44
2018-02-17T00:49:16.712Z,1027.49
2018-02-17T00:50:16.757Z,1027.45
2018-02-17T00:51:16.717Z,1027.42
2018-02-17T00:52:16.732Z,1027.34
2018-02-17T00:53:16.716Z,1027.36
2018-02-17T00:54:16.813Z,1027.32
2018-02-17T00:55:16.762Z,1027.27
2018-02-17T00:56:16.784Z,1027.22
2018-02-17T00:57:16.706Z,1027.2
2018-02-17T00:58:16.715Z,1027.15
2018-02-17T00:59:16.724Z,1027.08
2018-02-17T01:00:16.716Z,1027.1
2018-02-17T01:01:16.729Z,1027.04
2018-02-17T01:02:16.720Z,1027.01
2018-02-17T01:03:16.752Z,1027.01
2018-02-17T01:04:16.712Z,1026.96
2018-02-17T01:05:16.716Z,1026.99
2018-02-17T01:06:16.711Z,1026.97
2018-02-17T01:07:16.715Z,1026.97
2018-02-17T01:08:16.789Z,1026.96
2018-02-17T01:09:16.709Z,1026.9
2018-02-17T01:10:16.824Z,1026.94
2018-02-17T01:11:16.811Z,1026.9
2018-02-17T01:12:16.748Z,1026.92
2018-02-17T01:13:16.713Z,1026.86
2018-02-17T01:14:16.719Z,1026.85
2018-02-17T01:15:16.726Z,1026.83
2018-02-17T01:16:16.767Z,1026.83
2018-02-17T01:17:16.726Z,1026.82
2018-02-17T01:18:16.767Z,1026.76
2018-02-17T01:19:16.727Z,1026.78
2018-02-17T01:20:16.775Z,1026.75
2018-02-17T01:21:16.733Z,1026.74
2018-02-17T01:22:16.720Z,1026.69
2018-02-17T01:23:16.743Z,1026.69
2018-02-17T01:24:16.715Z,1026.7
2018-02-17T01:25:16.775Z,1026.65
2018-02-17T01:26:16.801Z,1026.63
2018-02-17T01:27:16.721Z,1026.61
2018-02-17T01:28:16.715Z,1026.57
2018-02-17T01:29:16.724Z,1026.55
2018-02-17T01:30:16.716Z,1026.58
2018-02-17T01:31:16.771Z,1026.56
2018-02-17T01:32:16.736Z,1026.57
2018-02-17T01:33:16.787Z,1026.59
2018-02-17T01:34:16.759Z,1026.56
2018-02-17T01:35:16.733Z,1026.57
2018-02-17T01:36:16.710Z,1026.56
2018-02-17T01:37:16.709Z,1026.54
2018-02-17T01:38:16.723Z,1026.51
2018-02-17T01:39:16.767Z,1026.49
2018-02-17T01:40:16.718Z,1026.43
2018-02-17T01:41:16.722Z,1026.4
2018-02-17T01:42:16.750Z,1026.35
2018-02-17T01:43:16.727Z,1026.34
2018-02-17T01:44:16.716Z,1026.27
2018-02-17T01:45:16.760Z,1026.26
2018-02-17T01:46:16.720Z,1026.22
2018-02-17T01:47:16.758Z,1026.17
2018-02-17T01:48:16.717Z,1026.21
2018-02-17T01:49:16.728Z,1026.16
2018-02-17T01:50:16.707Z,1026.11
2018-02-17T01:51:16.713Z,1026.11
2018-02-17T01:52:16.727Z,1026.11
2018-02-17T01:53:16.716Z,1026.11
2018-02-17T01:54:16.704Z,1026.18
2018-02-17T01:55:16.765Z,1026.19
2018-02-17T01:56:16.766Z,1026.2
2018-02-17T01:57:16.726Z,1026.22
2018-02-17T01:58:16.718Z,1026.2
2018-02-17T01:59:16.709Z,1026.23
2018-02-17T02:00:16.722Z,1026.21
2018-02-17T02:01:16.725Z,1026.17
2018-02-17T02:02:16.711Z,1026.18
2018-02-17T02:03:16.704Z,1026.11
2018-02-17T02:04:16.748Z,1026
2018-02-17T02:05:16.725Z,1025.97
2018-02-17T02:06:16.711Z,1025.91
2018-02-17T02:07:16.714Z,1025.87
2018-02-17T02:08:16.712Z,1025.88
2018-02-17T02:09:16.725Z,1025.87
2018-02-17T02:10:16.715Z,1025.93
2018-02-17T02:11:16.794Z,1025.98
2018-02-17T02:12:16.732Z,1026.04
2018-02-17T02:13:16.709Z,1026.12
2018-02-17T02:14:16.716Z,1026.09
2018-02-17T02:15:16.716Z,1026.17
2018-02-17T02:16:16.709Z,1026.18
2018-02-17T02:17:16.720Z,1026.26
2018-02-17T02:18:16.712Z,1026.3
2018-02-17T02:19:16.707Z,1026.24
2018-02-17T02:20:16.719Z,1026.33
2018-02-17T02:21:16.714Z,1026.32
2018-02-17T02:22:16.732Z,1026.38
2018-02-17T02:23:16.708Z,1026.41
2018-02-17T02:24:16.770Z,1026.41
2018-02-17T02:25:16.769Z,1026.46
2018-02-17T02:26:16.707Z,1026.44
2018-02-17T02:27:16.780Z,1026.45
2018-02-17T02:28:16.705Z,1026.44
2018-02-17T02:29:16.760Z,1026.45
2018-02-17T02:30:16.788Z,1026.49
2018-02-17T02:31:16.716Z,1026.44
2018-02-17T02:32:16.742Z,1026.47
2018-02-17T02:33:16.768Z,1026.39
2018-02-17T02:34:16.730Z,1026.35
2018-02-17T02:35:16.738Z,1026.32
2018-02-17T02:36:16.706Z,1026.28
2018-02-17T02:37:16.729Z,1026.24
2018-02-17T02:38:16.709Z,1026.25
2018-02-17T02:39:16.723Z,1026.23
2018-02-17T02:40:16.716Z,1026.19
2018-02-17T02:41:16.710Z,1026.18
2018-02-17T02:42:16.740Z,1026.13
2018-02-17T02:43:16.708Z,1026.13
2018-02-17T02:44:16.732Z,1026.14
2018-02-17T02:45:16.696Z,1026.1
2018-02-17T02:46:16.694Z,1026.08
2018-02-17T02:47:16.732Z,1026.1
2018-02-17T02:48:16.789Z,1026.06
2018-02-17T02:49:16.709Z,1026.05
2018-02-17T02:50:16.702Z,1026.07
2018-02-17T02:51:16.789Z,1026.14
2018-02-17T02:52:16.756Z,1026.11
2018-02-17T02:53:16.742Z,1026.09
2018-02-17T02:54:16.711Z,1026.08
2018-02-17T02:55:16.715Z,1026.08
2018-02-17T02:56:16.730Z,1026.03
2018-02-17T02:57:16.762Z,1026.04
2018-02-17T02:58:16.709Z,1026.01
2018-02-17T02:59:16.779Z,1026
2018-02-17T03:00:16.707Z,1025.92
2018-02-17T03:01:16.707Z,1025.94
2018-02-17T03:02:16.708Z,1025.89
2018-02-17T03:03:16.729Z,1025.85
2018-02-17T03:04:16.726Z,1025.82
2018-02-17T03:05:16.740Z,1025.76
2018-02-17T03:06:16.698Z,1025.77
2018-02-17T03:07:16.699Z,1025.68
2018-02-17T03:08:16.697Z,1025.73
2018-02-17T03:09:16.717Z,1025.67
2018-02-17T03:10:16.692Z,1025.67
2018-02-17T03:11:16.805Z,1025.7
2018-02-17T03:12:16.765Z,1025.73
2018-02-17T03:13:16.817Z,1025.72
2018-02-17T03:14:16.707Z,1025.7
2018-02-17T03:15:16.707Z,1025.73
2018-02-17T03:16:16.714Z,1025.68
2018-02-17T03:17:16.716Z,1025.69
2018-02-17T03:18:16.687Z,1025.69
2018-02-17T03:19:16.695Z,1025.69
2018-02-17T03:20:16.695Z,1025.68
2018-02-17T03:21:16.784Z,1025.7
2018-02-17T03:22:16.727Z,1025.73
2018-02-17T03:23:16.761Z,1025.79
2018-02-17T03:24:16.693Z,1025.81
2018-02-17T03:25:16.691Z,1025.86
2018-02-17T03:26:16.701Z,1025.91
2018-02-17T03:27:16.712Z,1025.84
2018-02-17T03:28:16.696Z,1025.81
2018-02-17T03:29:16.787Z,1025.77
2018-02-17T03:30:16.695Z,1025.69
2018-02-17T03:31:16.730Z,1025.61
2018-02-17T03:32:16.714Z,1025.56
2018-02-17T03:33:16.705Z,1025.58
2018-02-17T03:34:16.726Z,1025.54
2018-02-17T03:35:16.696Z,1025.48
2018-02-17T03:36:16.688Z,1025.38
2018-02-17T03:37:16.917Z,1025.31
2018-02-17T03:38:16.691Z,1025.25
2018-02-17T03:39:16.693Z,1025.21
2018-02-17T03:40:16.711Z,1025.2
2018-02-17T03:41:16.680Z,1025.18
2018-02-17T03:42:16.713Z,1025.12
2018-02-17T03:43:16.757Z,1025.12
2018-02-17T03:44:16.722Z,1025.07
2018-02-17T03:45:16.710Z,1025
2018-02-17T03:46:16.679Z,1024.97
2018-02-17T03:47:16.682Z,1024.94
2018-02-17T03:48:16.715Z,1024.84
2018-02-17T03:49:16.733Z,1024.85
2018-02-17T03:50:16.741Z,1024.83
2018-02-17T03:51:16.698Z,1024.84
2018-02-17T03:52:16.698Z,1024.81
2018-02-17T03:53:16.686Z,1024.84
2018-02-17T03:54:16.723Z,1024.83
2018-02-17T03:55:16.687Z,1024.85
2018-02-17T03:56:16.703Z,1024.82
2018-02-17T03:57:16.672Z,1024.82
2018-02-17T03:58:16.697Z,1024.8
2018-02-17T03:59:16.707Z,1024.73
2018-02-17T04:00:16.731Z,1024.72
2018-02-17T04:01:16.703Z,1024.66
2018-02-17T04:02:16.691Z,1024.65
2018-02-17T04:03:16.706Z,1024.64
2018-02-17T04:04:16.703Z,1024.59
2018-02-17T04:05:16.671Z,1024.63
2018-02-17T04:06:16.676Z,1024.61
2018-02-17T04:07:16.707Z,1024.55
2018-02-17T04:08:16.672Z,1024.59
2018-02-17T04:09:16.672Z,1024.58
2018-02-17T04:10:16.668Z,1024.61
2018-02-17T04:11:16.674Z,1024.62
2018-02-17T04:12:16.760Z,1024.69
2018-02-17T04:13:16.695Z,1024.64
2018-02-17T04:14:16.677Z,1024.7
2018-02-17T04:15:16.667Z,1024.61
2018-02-17T04:16:16.669Z,1024.63
2018-02-17T04:17:16.675Z,1024.64
2018-02-17T04:18:16.675Z,1024.69
2018-02-17T04:19:16.677Z,1024.67
2018-02-17T04:20:16.697Z,1024.7
2018-02-17T04:21:16.667Z,1024.66
2018-02-17T04:22:16.679Z,1024.64
2018-02-17T04:23:16.696Z,1024.63
2018-02-17T04:24:16.666Z,1024.59
2018-02-17T04:25:16.691Z,1024.52
2018-02-17T04:26:16.692Z,1024.51
2018-02-17T04:27:16.673Z,1024.44
2018-02-17T04:28:16.686Z,1024.43
2018-02-17T04:29:16.700Z,1024.44
2018-02-17T04:30:16.662Z,1024.36
2018-02-17T04:31:16.666Z,1024.38
2018-02-17T04:32:16.686Z,1024.32
2018-02-17T04:33:16.653Z,1024.3
2018-02-17T04:34:16.693Z,1024.25
2018-02-17T04:35:16.662Z,1024.23
2018-02-17T04:36:16.648Z,1024.24
2018-02-17T04:37:16.667Z,1024.34
2018-02-17T04:38:16.662Z,1024.33
2018-02-17T04:39:16.689Z,1024.39
2018-02-17T04:40:16.663Z,1024.41
2018-02-17T04:41:16.665Z,1024.37
2018-02-17T04:42:16.650Z,1024.39
2018-02-17T04:43:16.659Z,1024.34
2018-02-17T04:44:16.662Z,1024.33
2018-02-17T04:45:16.714Z,1024.33
2018-02-17T04:46:16.666Z,1024.32
2018-02-17T04:47:16.661Z,1024.32
2018-02-17T04:48:16.741Z,1024.27
2018-02-17T04:49:16.658Z,1024.28
2018-02-17T04:50:16.657Z,1024.23
2018-02-17T04:51:16.651Z,1024.25
2018-02-17T04:52:16.647Z,1024.28
2018-02-17T04:53:16.652Z,1024.2
2018-02-17T04:54:16.647Z,1024.24
2018-02-17T04:55:16.662Z,1024.26
2018-02-17T04:56:16.698Z,1024.17
2018-02-17T04:57:16.676Z,1024.17
2018-02-17T04:58:16.646Z,1024.15
2018-02-17T04:59:16.668Z,1024.13
2018-02-17T05:00:16.648Z,1024.1
2018-02-17T05:01:16.642Z,1024.13
2018-02-17T05:02:16.641Z,1024.14
2018-02-17T05:03:16.648Z,1024.04
2018-02-17T05:04:16.946Z,1024.03
2018-02-17T05:05:16.716Z,1023.95
2018-02-17T05:06:16.656Z,1023.96
2018-02-17T05:07:16.678Z,1023.87
2018-02-17T05:08:16.686Z,1023.85
2018-02-17T05:09:16.671Z,1023.85
2018-02-17T05:10:16.654Z,1023.82
2018-02-17T05:11:16.644Z,1023.79
2018-02-17T05:12:16.797Z,1023.72
2018-02-17T05:13:16.645Z,1023.74
2018-02-17T05:14:16.642Z,1023.68
2018-02-17T05:15:16.654Z,1023.69
2018-02-17T05:16:16.643Z,1023.67
2018-02-17T05:17:16.703Z,1023.68
2018-02-17T05:18:16.682Z,1023.67
2018-02-17T05:19:16.639Z,1023.78
2018-02-17T05:20:16.640Z,1023.75
2018-02-17T05:21:16.750Z,1023.79
2018-02-17T05:22:16.692Z,1023.88
2018-02-17T05:23:16.649Z,1023.85
2018-02-17T05:24:16.632Z,1023.85
2018-02-17T05:25:16.641Z,1023.77
2018-02-17T05:26:16.643Z,1023.8
2018-02-17T05:27:16.631Z,1023.81
2018-02-17T05:28:16.914Z,1023.85
2018-02-17T05:29:16.631Z,1023.9
2018-02-17T05:30:16.813Z,1023.94
2018-02-17T05:31:16.646Z,1023.94
2018-02-17T05:32:16.628Z,1023.98
2018-02-17T05:33:16.648Z,1024.05
2018-02-17T05:34:16.678Z,1024.07
2018-02-17T05:35:16.802Z,1024.08
2018-02-17T05:36:16.707Z,1024.05
2018-02-17T05:37:16.660Z,1024.16
2018-02-17T05:38:16.841Z,1024.17
2018-02-17T05:39:16.638Z,1024.2
2018-02-17T05:40:16.621Z,1024.19
2018-02-17T05:41:16.640Z,1024.23
2018-02-17T05:42:16.640Z,1024.18
2018-02-17T05:43:16.632Z,1024.16
2018-02-17T05:44:16.638Z,1024.12
2018-02-17T05:45:16.635Z,1024.11
2018-02-17T05:46:16.612Z,1024.09
2018-02-17T05:47:16.624Z,1024.07
2018-02-17T05:48:16.773Z,1024.03
2018-02-17T05:49:16.676Z,1024.02
2018-02-17T05:50:16.626Z,1023.96
2018-02-17T05:51:16.631Z,1023.92
2018-02-17T05:52:16.625Z,1023.84
2018-02-17T05:53:16.616Z,1023.82
2018-02-17T05:54:16.613Z,1023.79
2018-02-17T05:55:16.626Z,1023.74
2018-02-17T05:56:16.628Z,1023.75
2018-02-17T05:57:16.665Z,1023.73
2018-02-17T05:58:16.648Z,1023.69
2018-02-17T05:59:16.749Z,1023.68
2018-02-17T06:00:16.628Z,1023.67
2018-02-17T06:01:16.650Z,1023.66
2018-02-17T06:02:16.624Z,1023.63
2018-02-17T06:03:16.744Z,1023.63
2018-02-17T06:04:16.620Z,1023.61
2018-02-17T06:05:16.619Z,1023.61
2018-02-17T06:06:16.621Z,1023.54
2018-02-17T06:07:16.611Z,1023.55
2018-02-17T06:08:16.612Z,1023.49
2018-02-17T06:09:16.619Z,1023.48
2018-02-17T06:10:16.727Z,1023.47
2018-02-17T06:11:16.622Z,1023.43
2018-02-17T06:12:16.610Z,1023.47
2018-02-17T06:13:16.613Z,1023.43
2018-02-17T06:14:16.603Z,1023.43
2018-02-17T06:15:16.618Z,1023.33
2018-02-17T06:16:16.607Z,1023.34
2018-02-17T06:17:16.621Z,1023.36
2018-02-17T06:18:16.609Z,1023.31
2018-02-17T06:19:16.647Z,1023.32
2018-02-17T06:20:16.624Z,1023.31
2018-02-17T06:21:16.626Z,1023.27
2018-02-17T06:22:16.609Z,1023.28
2018-02-17T06:23:16.615Z,1023.29
2018-02-17T06:24:16.604Z,1023.26
2018-02-17T06:25:16.806Z,1023.24
2018-02-17T06:26:16.608Z,1023.24
2018-02-17T06:27:16.608Z,1023.22
2018-02-17T06:28:16.621Z,1023.21
2018-02-17T06:29:16.606Z,1023.22
2018-02-17T06:30:16.593Z,1023.22
2018-02-17T06:31:16.599Z,1023.12
2018-02-17T06:32:16.714Z,1023.15
2018-02-17T06:33:16.725Z,1023.07
2018-02-17T06:34:16.655Z,1023.05
2018-02-17T06:35:16.601Z,1023
2018-02-17T06:36:16.597Z,1022.94
2018-02-17T06:37:16.603Z,1022.93
2018-02-17T06:38:16.964Z,1022.9
2018-02-17T06:39:16.699Z,1022.82
2018-02-17T06:40:16.611Z,1022.76
2018-02-17T06:41:16.761Z,1022.76
2018-02-17T06:42:16.645Z,1022.75
2018-02-17T06:43:16.629Z,1022.78
2018-02-17T06:44:16.589Z,1022.81
2018-02-17T06:45:16.629Z,1022.76
2018-02-17T06:46:16.596Z,1022.74
2018-02-17T06:47:16.602Z,1022.79
2018-02-17T06:48:16.612Z,1022.85
2018-02-17T06:49:16.634Z,1022.87
2018-02-17T06:50:16.599Z,1022.9
2018-02-17T06:51:16.695Z,1022.87
2018-02-17T06:52:16.603Z,1022.9
2018-02-17T06:53:16.666Z,1022.89
2018-02-17T06:54:16.619Z,1022.9
2018-02-17T06:55:16.723Z,1022.89
2018-02-17T06:56:16.725Z,1022.97
2018-02-17T06:57:16.603Z,1023.01
2018-02-17T06:58:16.588Z,1023.07
2018-02-17T06:59:16.592Z,1023.12
2018-02-17T07:00:16.595Z,1023.21
2018-02-17T07:01:16.578Z,1023.19
2018-02-17T07:02:16.776Z,1023.27
2018-02-17T07:03:16.586Z,1023.28
2018-02-17T07:04:16.758Z,1023.35
2018-02-17T07:05:16.676Z,1023.31
2018-02-17T07:06:16.621Z,1023.33
2018-02-17T07:07:16.591Z,1023.32
2018-02-17T07:08:16.594Z,1023.33
2018-02-17T07:09:16.594Z,1023.36
2018-02-17T07:10:16.601Z,1023.32
2018-02-17T07:11:16.731Z,1023.37
2018-02-17T07:12:16.792Z,1023.31
2018-02-17T07:13:16.696Z,1023.32
2018-02-17T07:14:16.583Z,1023.34
2018-02-17T07:15:16.584Z,1023.31
2018-02-17T07:16:16.585Z,1023.34
2018-02-17T07:17:16.584Z,1023.36
2018-02-17T07:18:16.585Z,1023.33
2018-02-17T07:19:16.583Z,1023.31
2018-02-17T07:20:16.598Z,1023.32
2018-02-17T07:21:16.753Z,1023.36
2018-02-17T07:22:16.579Z,1023.35
2018-02-17T07:23:16.575Z,1023.31
2018-02-17T07:24:16.596Z,1023.33
2018-02-17T07:25:16.583Z,1023.29
2018-02-17T07:26:16.603Z,1023.29
2018-02-17T07:27:16.705Z,1023.26
2018-02-17T07:28:16.605Z,1023.28
2018-02-17T07:29:16.704Z,1023.27
2018-02-17T07:30:16.672Z,1023.25
2018-02-17T07:31:16.583Z,1023.33
2018-02-17T07:32:16.996Z,1023.3
2018-02-17T07:33:16.578Z,1023.31
2018-02-17T07:34:16.582Z,1023.34
2018-02-17T07:35:16.579Z,1023.39
2018-02-17T07:36:16.612Z,1023.4
2018-02-17T07:37:16.614Z,1023.37
2018-02-17T07:38:16.577Z,1023.4
2018-02-17T07:39:16.587Z,1023.38
2018-02-17T07:40:16.580Z,1023.35
2018-02-17T07:41:16.579Z,1023.39
2018-02-17T07:42:16.598Z,1023.37
2018-02-17T07:43:16.578Z,1023.35
2018-02-17T07:44:16.567Z,1023.33
2018-02-17T07:45:16.580Z,1023.31
2018-02-17T07:46:16.570Z,1023.33
2018-02-17T07:47:16.598Z,1023.28
2018-02-17T07:48:16.571Z,1023.31
2018-02-17T07:49:16.680Z,1023.26
2018-02-17T07:50:16.609Z,1023.24
2018-02-17T07:51:16.576Z,1023.25
2018-02-17T07:52:16.577Z,1023.22
2018-02-17T07:53:16.605Z,1023.29
2018-02-17T07:54:16.714Z,1023.27
2018-02-17T07:55:16.578Z,1023.26
2018-02-17T07:56:16.574Z,1023.22
2018-02-17T07:57:16.578Z,1023.24
2018-02-17T07:58:16.596Z,1023.15
2018-02-17T07:59:16.699Z,1023.16
2018-02-17T08:00:16.581Z,1023.12
2018-02-17T08:01:16.752Z,1023.09
2018-02-17T08:02:16.423Z,1023.13
2018-02-17T08:03:16.571Z,1023.12
2018-02-17T08:04:16.723Z,1023.16
2018-02-17T08:05:16.577Z,1023.13
2018-02-17T08:06:16.577Z,1023.12
2018-02-17T08:07:16.626Z,1023.07
2018-02-17T08:08:16.576Z,1023.04
2018-02-17T08:09:16.594Z,1023.01
2018-02-17T08:10:16.703Z,1023.05
2018-02-17T08:11:16.587Z,1023.03
2018-02-17T08:12:16.558Z,1022.99
2018-02-17T08:13:16.572Z,1022.97
2018-02-17T08:14:16.562Z,1022.88
2018-02-17T08:15:16.593Z,1022.86
2018-02-17T08:16:16.649Z,1022.83
2018-02-17T08:17:16.761Z,1022.81
2018-02-17T08:18:16.592Z,1022.8
2018-02-17T08:19:16.696Z,1022.76
2018-02-17T08:20:16.665Z,1022.73
2018-02-17T08:21:16.709Z,1022.71
2018-02-17T08:22:16.581Z,1022.7
2018-02-17T08:23:16.613Z,1022.65
2018-02-17T08:24:16.576Z,1022.63
2018-02-17T08:25:16.658Z,1022.6
2018-02-17T08:26:16.665Z,1022.61
2018-02-17T08:27:16.606Z,1022.64
2018-02-17T08:28:16.627Z,1022.62
2018-02-17T08:29:16.919Z,1022.63
2018-02-17T08:30:16.580Z,1022.61
2018-02-17T08:31:16.568Z,1022.62
2018-02-17T08:32:16.598Z,1022.6
2018-02-17T08:33:16.590Z,1022.6
2018-02-17T08:34:16.559Z,1022.58
2018-02-17T08:35:16.659Z,1022.57
2018-02-17T08:36:16.569Z,1022.62
2018-02-17T08:37:16.553Z,1022.59
2018-02-17T08:38:16.913Z,1022.6
2018-02-17T08:39:16.648Z,1022.53
2018-02-17T08:40:16.606Z,1022.54
2018-02-17T08:41:16.558Z,1022.58
2018-02-17T08:42:16.656Z,1022.56
2018-02-17T08:43:16.705Z,1022.57
2018-02-17T08:44:16.584Z,1022.56
2018-02-17T08:45:16.559Z,1022.53
2018-02-17T08:46:16.753Z,1022.45
2018-02-17T08:47:16.555Z,1022.42
2018-02-17T08:48:16.581Z,1022.42
2018-02-17T08:49:16.557Z,1022.41
2018-02-17T08:50:16.568Z,1022.36
2018-02-17T08:51:16.550Z,1022.37
2018-02-17T08:52:16.561Z,1022.36
2018-02-17T08:53:16.566Z,1022.29
2018-02-17T08:54:16.731Z,1022.27
2018-02-17T08:55:16.674Z,1022.27
2018-02-17T08:56:16.560Z,1022.24
2018-02-17T08:57:16.675Z,1022.23
2018-02-17T08:58:16.569Z,1022.2
2018-02-17T08:59:16.554Z,1022.19
2018-02-17T09:00:16.559Z,1022.2
2018-02-17T09:01:16.568Z,1022.16
2018-02-17T09:02:16.584Z,1022.17
2018-02-17T09:03:16.560Z,1022.15
2018-02-17T09:04:16.557Z,1022.13
2018-02-17T09:05:16.784Z,1022.09
2018-02-17T09:06:16.597Z,1022.08
2018-02-17T09:07:16.572Z,1022.11
2018-02-17T09:08:16.554Z,1022.12
2018-02-17T09:09:16.561Z,1022.09
2018-02-17T09:10:16.748Z,1022.11
2018-02-17T09:11:16.757Z,1022.08
2018-02-17T09:12:16.540Z,1022.07
2018-02-17T09:13:16.765Z,1022.04
2018-02-17T09:14:16.689Z,1022.05
2018-02-17T09:15:16.562Z,1022.02
2018-02-17T09:16:16.543Z,1022.04
2018-02-17T09:17:16.547Z,1021.96
2018-02-17T09:18:16.681Z,1022.03
2018-02-17T09:19:16.543Z,1022.04
2018-02-17T09:20:16.543Z,1021.93
2018-02-17T09:21:16.541Z,1021.96
2018-02-17T09:22:16.539Z,1021.91
2018-02-17T09:23:16.707Z,1021.91
2018-02-17T09:24:16.582Z,1021.88
2018-02-17T09:25:16.546Z,1021.95
2018-02-17T09:26:16.640Z,1021.93
2018-02-17T09:27:16.556Z,1021.93
2018-02-17T09:28:16.549Z,1021.94
2018-02-17T09:29:16.689Z,1021.92
2018-02-17T09:30:16.628Z,1021.93
2018-02-17T09:31:16.608Z,1021.91
2018-02-17T09:32:16.616Z,1021.98
2018-02-17T09:33:16.561Z,1021.99
2018-02-17T09:34:16.775Z,1021.94
2018-02-17T09:35:16.595Z,1021.98
2018-02-17T09:36:16.563Z,1021.93
2018-02-17T09:37:16.577Z,1021.94
2018-02-17T09:38:16.543Z,1022.03
2018-02-17T09:39:16.647Z,1022
2018-02-17T09:40:16.557Z,1021.96
2018-02-17T09:41:16.549Z,1022
2018-02-17T09:42:16.662Z,1022.01
2018-02-17T09:43:16.549Z,1022.03
2018-02-17T09:44:16.652Z,1022.01
2018-02-17T09:45:16.551Z,1021.94
2018-02-17T09:46:16.528Z,1021.97
2018-02-17T09:47:16.610Z,1021.94
2018-02-17T09:48:16.562Z,1021.98
2018-02-17T09:49:16.532Z,1022.02
2018-02-17T09:50:16.583Z,1022.03
2018-02-17T09:51:16.547Z,1022.06
2018-02-17T09:52:16.530Z,1022.03
2018-02-17T09:53:16.556Z,1022.06
2018-02-17T09:54:16.538Z,1022.08
2018-02-17T09:55:16.539Z,1022.07
2018-02-17T09:56:16.525Z,1022.07
2018-02-17T09:57:16.651Z,1022.08
2018-02-17T09:58:16.550Z,1022.12
2018-02-17T09:59:16.543Z,1022.12
2018-02-17T10:00:16.554Z,1022.18
2018-02-17T10:01:16.546Z,1022.16
2018-02-17T10:02:16.554Z,1022.24
2018-02-17T10:03:16.593Z,1022.24
2018-02-17T10:04:16.534Z,1022.22
2018-02-17T10:05:16.660Z,1022.3
2018-02-17T10:06:16.545Z,1022.31
2018-02-17T10:07:16.530Z,1022.27
2018-02-17T10:08:16.538Z,1022.31
2018-02-17T10:09:16.527Z,1022.34
2018-02-17T10:10:16.655Z,1022.34
2018-02-17T10:11:16.590Z,1022.32
2018-02-17T10:12:16.520Z,1022.32
2018-02-17T10:13:16.545Z,1022.33
2018-02-17T10:14:16.537Z,1022.32
2018-02-17T10:15:16.595Z,1022.31
2018-02-17T10:16:16.666Z,1022.28
2018-02-17T10:17:16.569Z,1022.31
2018-02-17T10:18:16.566Z,1022.31
2018-02-17T10:19:16.592Z,1022.31
2018-02-17T10:20:16.596Z,1022.3
2018-02-17T10:21:16.630Z,1022.33
2018-02-17T10:22:16.650Z,1022.39
2018-02-17T10:23:16.531Z,1022.35
2018-02-17T10:24:16.579Z,1022.35
2018-02-17T10:25:16.590Z,1022.35
2018-02-17T10:26:16.549Z,1022.35
2018-02-17T10:27:16.527Z,1022.35
2018-02-17T10:28:16.522Z,1022.4
2018-02-17T10:29:16.517Z,1022.41
2018-02-17T10:30:16.528Z,1022.41
2018-02-17T10:31:16.601Z,1022.35
2018-02-17T10:32:16.616Z,1022.44
2018-02-17T10:33:16.632Z,1022.43
2018-02-17T10:34:16.572Z,1022.39
2018-02-17T10:35:16.533Z,1022.41
2018-02-17T10:36:16.546Z,1022.4
2018-02-17T10:37:16.638Z,1022.4
2018-02-17T10:38:16.614Z,1022.42
2018-02-17T10:39:16.635Z,1022.48
2018-02-17T10:40:16.540Z,1022.47
2018-02-17T10:41:16.514Z,1022.47
2018-02-17T10:42:16.572Z,1022.48
2018-02-17T10:43:16.516Z,1022.48
2018-02-17T10:44:16.509Z,1022.47
2018-02-17T10:45:16.617Z,1022.45
2018-02-17T10:46:16.512Z,1022.39
2018-02-17T10:47:16.551Z,1022.38
2018-02-17T10:48:16.540Z,1022.41
2018-02-17T10:49:16.553Z,1022.36
2018-02-17T10:50:16.520Z,1022.39
2018-02-17T10:51:16.629Z,1022.41
2018-02-17T10:52:16.503Z,1022.41
2018-02-17T10:53:16.650Z,1022.38
2018-02-17T10:54:16.555Z,1022.4
2018-02-17T10:55:16.511Z,1022.39
2018-02-17T10:56:16.514Z,1022.44
2018-02-17T10:57:16.536Z,1022.38
2018-02-17T10:58:16.546Z,1022.39
2018-02-17T10:59:16.518Z,1022.4
2018-02-17T11:00:16.525Z,1022.43
2018-02-17T11:01:16.529Z,1022.42
2018-02-17T11:02:16.510Z,1022.46
2018-02-17T11:03:16.523Z,1022.44
2018-02-17T11:04:16.521Z,1022.48
2018-02-17T11:05:16.528Z,1022.47
2018-02-17T11:06:16.545Z,1022.48
2018-02-17T11:07:16.513Z,1022.47
2018-02-17T11:08:16.513Z,1022.51
2018-02-17T11:09:16.522Z,1022.48
2018-02-17T11:10:16.774Z,1022.49
2018-02-17T11:11:16.565Z,1022.53
2018-02-17T11:12:16.635Z,1022.5
2018-02-17T11:13:16.510Z,1022.54
2018-02-17T11:14:16.609Z,1022.61
2018-02-17T11:15:16.551Z,1022.59
2018-02-17T11:16:16.518Z,1022.53
2018-02-17T11:17:16.542Z,1022.59
2018-02-17T11:18:16.606Z,1022.59
2018-02-17T11:19:16.513Z,1022.64
2018-02-17T11:20:16.522Z,1022.57
2018-02-17T11:21:16.542Z,1022.56
2018-02-17T11:22:16.520Z,1022.53
2018-02-17T11:23:16.524Z,1022.56
2018-02-17T11:24:16.503Z,1022.6
2018-02-17T11:25:16.502Z,1022.56
2018-02-17T11:26:16.560Z,1022.55
2018-02-17T11:27:16.520Z,1022.54
2018-02-17T11:28:16.500Z,1022.52
2018-02-17T11:29:16.507Z,1022.54
2018-02-17T11:30:16.518Z,1022.54
2018-02-17T11:31:16.515Z,1022.55
2018-02-17T11:32:16.516Z,1022.56
2018-02-17T11:33:16.506Z,1022.58
2018-02-17T11:34:16.556Z,1022.56
2018-02-17T11:35:16.500Z,1022.51
2018-02-17T11:36:16.521Z,1022.48
2018-02-17T11:37:16.499Z,1022.48
2018-02-17T11:38:16.516Z,1022.45
2018-02-17T11:39:16.518Z,1022.45
2018-02-17T11:40:16.505Z,1022.44
2018-02-17T11:41:16.504Z,1022.4
2018-02-17T11:42:16.504Z,1022.4
2018-02-17T11:43:16.551Z,1022.39
2018-02-17T11:44:16.528Z,1022.34
2018-02-17T11:45:16.500Z,1022.37
2018-02-17T11:46:16.707Z,1022.33
2018-02-17T11:47:16.496Z,1022.3
2018-02-17T11:48:16.489Z,1022.26
2018-02-17T11:49:16.505Z,1022.27
2018-02-17T11:50:16.492Z,1022.23
2018-02-17T11:51:16.517Z,1022.22
2018-02-17T11:52:16.497Z,1022.26
2018-02-17T11:53:16.511Z,1022.23
2018-02-17T11:54:16.506Z,1022.28
2018-02-17T11:55:16.510Z,1022.23
2018-02-17T11:56:16.531Z,1022.24
2018-02-17T11:57:16.496Z,1022.24
2018-02-17T11:58:16.503Z,1022.25
2018-02-17T11:59:16.491Z,1022.3
2018-02-17T12:00:16.526Z,1022.29
2018-02-17T12:01:16.527Z,1022.28
2018-02-17T12:02:16.508Z,1022.26
2018-02-17T12:03:16.493Z,1022.26
2018-02-17T12:04:16.545Z,1022.25
2018-02-17T12:05:16.492Z,1022.24
2018-02-17T12:06:16.507Z,1022.2
2018-02-17T12:07:16.483Z,1022.18
2018-02-17T12:08:16.530Z,1022.17